createdAt,value
2023-01-06T00:01:39.703Z,98806.58
2023-01-06T00:04:12.694Z,98803.50
2023-01-06T00:07:05.058Z,98813.40
2023-01-06T00:09:38.833Z,98813.55
2023-01-06T00:12:11.628Z,98824.98
2023-01-06T00:14:44.431Z,98824.49
2023-01-06T00:17:16.720Z,98827.19
2023-01-06T00:19:49.469Z,98823.48
2023-01-06T00:22:22.636Z,98824.83
2023-01-06T00:24:55.214Z,98836.97
2023-01-06T00:27:27.614Z,98841.39
2023-01-06T00:30:00.366Z,98837.34
2023-01-06T00:32:33.048Z,98852.34
2023-01-06T00:35:07.138Z,98852.41
2023-01-06T00:37:39.965Z,98854.38
2023-01-06T00:40:13.054Z,98849.91
2023-01-06T00:42:46.323Z,98844.28
2023-01-06T00:45:18.698Z,98854.70
2023-01-06T00:47:52.362Z,98864.85
2023-01-06T00:50:24.970Z,98871.03
2023-01-06T00:52:57.514Z,98888.22
2023-01-06T00:55:30.155Z,98908.11
2023-01-06T00:58:02.705Z,98910.70
2023-01-06T01:00:35.766Z,98919.73
2023-01-06T01:03:08.331Z,98918.77
2023-01-06T01:05:41.224Z,98931.80
2023-01-06T01:08:14.113Z,98938.88
2023-01-06T01:10:46.815Z,98942.59
2023-01-06T01:13:20.394Z,98944.95
2023-01-06T01:15:53.315Z,98960.48
2023-01-06T01:18:25.949Z,98954.19
2023-01-06T01:20:58.430Z,98963.32
2023-01-06T01:23:31.422Z,98967.80
2023-01-06T01:26:05.113Z,98979.34
2023-01-06T01:28:40.372Z,98991.53
2023-01-06T01:31:13.541Z,98990.61
2023-01-06T01:33:46.845Z,99006.91
2023-01-06T01:36:20.081Z,99013.15
2023-01-06T01:38:53.070Z,99021.38
2023-01-06T01:41:25.934Z,99022.52
2023-01-06T01:44:03.022Z,99018.27
2023-01-06T01:46:42.946Z,99028.17
2023-01-06T01:49:27.462Z,99034.56
2023-01-06T01:51:59.817Z,99041.55
2023-01-06T01:54:33.719Z,99050.81
2023-01-06T01:57:14.048Z,99051.34
2023-01-06T01:59:46.674Z,99064.27
2023-01-06T02:02:19.398Z,99066.86
2023-01-06T02:04:55.315Z,99072.72
2023-01-06T02:07:28.279Z,99073.95
2023-01-06T02:10:15.250Z,99087.62
2023-01-06T02:12:51.627Z,99089.33
2023-01-06T02:15:34.189Z,99107.48
2023-01-06T02:18:32.330Z,99106.53
2023-01-06T02:21:10.141Z,99110.91
2023-01-06T02:23:59.513Z,99114.45
2023-01-06T02:26:55.977Z,99123.34
2023-01-06T02:29:51.784Z,99112.73
2023-01-06T02:32:54.242Z,99130.53
2023-01-06T02:35:52.117Z,99138.47
2023-01-06T02:38:42.205Z,99144.31
2023-01-06T02:41:40.666Z,99151.26
2023-01-06T02:44:33.162Z,99157.02
2023-01-06T02:47:20.901Z,99160.41
2023-01-06T02:50:13.484Z,99160.88
2023-01-06T02:52:50.330Z,99169.05
2023-01-06T02:55:39.726Z,99171.61
2023-01-06T02:58:47.313Z,99176.26
2023-01-06T03:01:36.924Z,99192.20
2023-01-06T03:04:20.362Z,99201.33
2023-01-06T03:06:53.545Z,99205.23
2023-01-06T03:09:34.686Z,99219.23
2023-01-06T03:12:17.578Z,99220.44
2023-01-06T03:14:52.064Z,99231.03
2023-01-06T03:17:25.576Z,99239.67
2023-01-06T03:19:58.070Z,99234.78
2023-01-06T03:22:30.713Z,99236.34
2023-01-06T03:25:03.622Z,99244.50
2023-01-06T03:27:36.973Z,99247.16
2023-01-06T03:30:11.907Z,99261.44
2023-01-06T03:33:08.643Z,99261.08
2023-01-06T03:35:58.950Z,99273.14
2023-01-06T03:39:23.970Z,99274.20
2023-01-06T03:42:35.273Z,99289.34
2023-01-06T03:45:18.458Z,99298.97
2023-01-06T03:48:01.137Z,99302.02
2023-01-06T03:50:39.176Z,99307.99
2023-01-06T03:53:40.309Z,99316.98
2023-01-06T03:56:37.673Z,99325.25
2023-01-06T03:59:17.992Z,99329.13
2023-01-06T04:01:52.092Z,99339.81
2023-01-06T04:04:38.213Z,99355.25
2023-01-06T04:07:10.552Z,99367.92
2023-01-06T04:09:45.825Z,99368.14
2023-01-06T04:12:36.541Z,99383.25
2023-01-06T04:15:21.612Z,99384.44
2023-01-06T04:17:54.379Z,99393.82
2023-01-06T04:20:30.238Z,99411.34
2023-01-06T04:23:04.377Z,99416.45
2023-01-06T04:25:46.354Z,99423.52
2023-01-06T04:28:26.568Z,99418.16
2023-01-06T04:31:02.685Z,99426.09
2023-01-06T04:33:37.396Z,99428.92
2023-01-06T04:36:11.027Z,99427.32
2023-01-06T04:38:45.795Z,99446.66
2023-01-06T04:41:18.504Z,99454.33
2023-01-06T04:43:51.522Z,99464.90
2023-01-06T04:46:25.180Z,99466.19
2023-01-06T04:48:57.529Z,99469.76
2023-01-06T04:51:30.542Z,99473.26
2023-01-06T04:54:03.095Z,99475.94
2023-01-06T04:56:35.666Z,99480.89
2023-01-06T04:59:09.753Z,99485.31
2023-01-06T05:01:42.348Z,99491.04
2023-01-06T05:04:15.004Z,99493.61
2023-01-06T05:06:47.640Z,99506.30
2023-01-06T05:09:20.839Z,99517.94
2023-01-06T05:11:53.736Z,99525.41
2023-01-06T05:14:27.518Z,99543.79
2023-01-06T05:17:00.342Z,99554.31
2023-01-06T05:19:32.985Z,99557.97
2023-01-06T05:22:05.499Z,99569.45
2023-01-06T05:24:38.195Z,99574.62
2023-01-06T05:27:10.871Z,99580.84
2023-01-06T05:29:43.497Z,99583.46
2023-01-06T05:32:16.144Z,99578.88
2023-01-06T05:34:48.660Z,99586.28
2023-01-06T05:37:21.016Z,99593.92
2023-01-06T05:39:53.454Z,99594.32
2023-01-06T05:42:25.885Z,99595.83
2023-01-06T05:44:59.331Z,99608.75
2023-01-06T05:47:32.065Z,99622.25
2023-01-06T05:50:05.332Z,99626.90
2023-01-06T05:52:37.786Z,99633.23
2023-01-06T05:55:11.063Z,99636.48
2023-01-06T05:57:43.864Z,99646.86
2023-01-06T06:00:18.217Z,99662.35
2023-01-06T06:02:50.838Z,99661.11
2023-01-06T06:05:24.034Z,99663.05
2023-01-06T06:07:59.406Z,99657.98
2023-01-06T06:10:32.506Z,99678.64
2023-01-06T06:13:05.753Z,99684.19
2023-01-06T06:15:38.473Z,99687.66
2023-01-06T06:18:11.172Z,99694.18
2023-01-06T06:20:44.608Z,99703.55
2023-01-06T06:23:19.529Z,99699.53
2023-01-06T06:25:53.141Z,99717.68
2023-01-06T06:28:25.945Z,99714.83
2023-01-06T06:31:06.958Z,99732.59
2023-01-06T06:33:40.397Z,99744.00
2023-01-06T06:36:15.515Z,99750.19
2023-01-06T06:38:48.480Z,99754.40
2023-01-06T06:41:21.553Z,99767.41
2023-01-06T06:43:54.073Z,99778.13
2023-01-06T06:46:26.606Z,99784.06
2023-01-06T06:49:00.014Z,99793.53
2023-01-06T06:51:32.820Z,99805.58
2023-01-06T06:54:06.019Z,99803.83
2023-01-06T06:56:39.254Z,99814.08
2023-01-06T06:59:11.883Z,99811.80
2023-01-06T07:01:44.553Z,99817.33
2023-01-06T07:04:18.278Z,99825.18
2023-01-06T07:06:50.857Z,99837.11
2023-01-06T07:09:23.376Z,99847.54
2023-01-06T07:11:55.873Z,99849.06
2023-01-06T07:14:28.426Z,99863.97
2023-01-06T07:17:03.801Z,99883.67
2023-01-06T07:19:37.010Z,99881.27
2023-01-06T07:22:09.422Z,99899.64
2023-01-06T07:24:42.033Z,99908.31
2023-01-06T07:27:14.619Z,99909.45
2023-01-06T07:29:47.310Z,99914.03
2023-01-06T07:32:19.725Z,99925.23
2023-01-06T07:34:52.825Z,99928.55
2023-01-06T07:37:25.480Z,99941.14
2023-01-06T07:39:58.029Z,99936.94
2023-01-06T07:42:31.778Z,99945.23
2023-01-06T07:45:05.713Z,99955.27
2023-01-06T07:47:38.320Z,99953.93
2023-01-06T07:50:10.816Z,99965.19
2023-01-06T07:52:43.167Z,99967.19
2023-01-06T07:55:15.868Z,99974.89
2023-01-06T07:57:48.681Z,99988.27
2023-01-06T08:00:21.657Z,99993.53
2023-01-06T08:02:54.546Z,100012.17
2023-01-06T08:05:27.431Z,100004.82
2023-01-06T08:08:00.080Z,100008.47
2023-01-06T08:10:33.162Z,100024.44
2023-01-06T08:13:05.699Z,100023.59
2023-01-06T08:15:39.221Z,100030.58
2023-01-06T08:18:11.889Z,100037.81
2023-01-06T08:20:44.319Z,100040.73
2023-01-06T08:23:16.857Z,100056.79
2023-01-06T08:25:50.459Z,100073.63
2023-01-06T08:28:33.516Z,100090.80
2023-01-06T08:31:07.984Z,100093.15
2023-01-06T08:33:41.040Z,100099.83
2023-01-06T08:36:19.626Z,100110.31
2023-01-06T08:38:52.675Z,100107.27
2023-01-06T08:41:25.233Z,100118.59
2023-01-06T08:43:57.940Z,100115.09
2023-01-06T08:46:30.389Z,100122.33
2023-01-06T08:49:03.336Z,100127.45
2023-01-06T08:51:36.078Z,100130.06
2023-01-06T08:54:08.577Z,100121.57
2023-01-06T08:56:43.179Z,100133.22
2023-01-06T08:59:17.671Z,100126.77
2023-01-06T09:01:50.281Z,100126.23
2023-01-06T09:04:24.204Z,100134.07
2023-01-06T09:06:57.555Z,100140.83
2023-01-06T09:09:30.216Z,100142.25
2023-01-06T09:12:03.340Z,100145.73
2023-01-06T09:14:36.704Z,100141.72
2023-01-06T09:17:09.263Z,100150.42
2023-01-06T09:19:42.146Z,100146.11
2023-01-06T09:22:14.729Z,100146.19
2023-01-06T09:24:47.817Z,100158.14
2023-01-06T09:27:21.639Z,100152.64
2023-01-06T09:29:54.530Z,100158.94
2023-01-06T09:32:27.003Z,100157.98
2023-01-06T09:34:59.487Z,100169.55
2023-01-06T09:37:32.159Z,100166.61
2023-01-06T09:40:05.859Z,100170.31
2023-01-06T09:42:53.738Z,100178.17
2023-01-06T09:45:57.761Z,100179.97
2023-01-06T09:48:40.988Z,100184.92
2023-01-06T09:51:18.080Z,100176.03
2023-01-06T09:53:54.962Z,100175.03
2023-01-06T09:56:27.743Z,100174.69
2023-01-06T09:59:10.059Z,100198.20
2023-01-06T10:01:47.078Z,100188.77
2023-01-06T10:04:28.073Z,100200.72
2023-01-06T10:07:13.659Z,100206.60
2023-01-06T10:10:06.291Z,100215.50
2023-01-06T10:13:09.163Z,100214.53
2023-01-06T10:16:10.964Z,100226.94
2023-01-06T10:18:54.240Z,100229.86
2023-01-06T10:21:46.516Z,100229.42
2023-01-06T10:24:52.010Z,100239.65
2023-01-06T10:27:52.500Z,100237.67
2023-01-06T10:30:45.088Z,100251.59
2023-01-06T10:36:00.215Z,100259.98
2023-01-06T10:38:40.596Z,100264.07
2023-01-06T10:41:41.449Z,100269.97
2023-01-06T10:44:14.087Z,100277.87
2023-01-06T10:46:47.773Z,100272.66
2023-01-06T10:49:22.440Z,100279.20
2023-01-06T10:51:58.658Z,100290.88
2023-01-06T10:54:35.083Z,100300.44
2023-01-06T10:57:11.993Z,100303.25
2023-01-06T11:00:18.626Z,100307.36
2023-01-06T11:02:57.770Z,100308.20
2023-01-06T11:05:31.162Z,100307.42
2023-01-06T11:08:11.254Z,100314.70
2023-01-06T11:10:54.224Z,100316.11
2023-01-06T11:13:34.619Z,100309.33
2023-01-06T11:16:11.226Z,100317.48
2023-01-06T11:18:43.937Z,100318.95
2023-01-06T11:21:19.610Z,100326.64
2023-01-06T11:23:51.970Z,100329.77
2023-01-06T11:26:24.544Z,100324.97
2023-01-06T11:28:57.200Z,100327.98
2023-01-06T11:31:30.372Z,100330.91
2023-01-06T11:34:05.923Z,100334.13
2023-01-06T11:36:38.412Z,100337.33
2023-01-06T11:39:18.372Z,100346.29
2023-01-06T11:41:52.432Z,100353.88
2023-01-06T11:44:34.463Z,100356.55
2023-01-06T11:47:17.879Z,100352.69
2023-01-06T11:50:01.163Z,100364.20
2023-01-06T11:52:35.416Z,100367.22
2023-01-06T11:55:16.191Z,100366.34
2023-01-06T11:57:53.802Z,100372.48
2023-01-06T12:00:39.752Z,100375.16
2023-01-06T12:03:36.044Z,100378.14
2023-01-06T12:06:31.144Z,100373.16
2023-01-06T12:09:14.904Z,100378.63
2023-01-06T12:11:55.761Z,100379.16
2023-01-06T12:14:35.588Z,100382.98
2023-01-06T12:17:32.429Z,100382.23
2023-01-06T12:20:13.704Z,100382.23
2023-01-06T12:22:55.244Z,100389.53
2023-01-06T12:25:34.954Z,100394.94
2023-01-06T12:28:31.767Z,100396.28
2023-01-06T12:31:33.243Z,100397.94
2023-01-06T12:34:11.064Z,100404.16
2023-01-06T12:37:33.685Z,100407.87
2023-01-06T12:40:30.691Z,100408.29
2023-01-06T12:43:23.686Z,100406.27
2023-01-06T12:46:24.701Z,100423.55
2023-01-06T12:49:21.051Z,100439.23
2023-01-06T12:51:56.289Z,100446.42
2023-01-06T12:54:33.594Z,100450.43
2023-01-06T12:57:13.716Z,100456.25
2023-01-06T13:00:16.791Z,100470.38
2023-01-06T13:03:24.625Z,100474.99
2023-01-06T13:06:13.634Z,100483.12
2023-01-06T13:09:25.190Z,100490.17
2023-01-06T13:12:23.383Z,100497.89
2023-01-06T13:15:24.062Z,100504.73
2023-01-06T13:18:34.405Z,100507.22
2023-01-06T13:21:10.230Z,100509.01
2023-01-06T13:23:50.618Z,100526.28
2023-01-06T13:26:49.840Z,100527.62
2023-01-06T13:29:39.319Z,100533.07
2023-01-06T13:32:39.419Z,100537.59
2023-01-06T13:35:25.640Z,100540.80
2023-01-06T13:38:29.826Z,100554.77
2023-01-06T13:41:03.911Z,100553.04
2023-01-06T13:43:37.393Z,100545.16
2023-01-06T13:46:12.620Z,100561.70
2023-01-06T13:48:49.673Z,100560.48
2023-01-06T13:51:44.529Z,100568.30
2023-01-06T13:54:46.218Z,100562.17
2023-01-06T13:57:32.277Z,100573.34
2023-01-06T14:00:15.543Z,100568.56
2023-01-06T14:02:55.895Z,100569.89
2023-01-06T14:05:33.367Z,100582.39
2023-01-06T14:08:09.969Z,100571.91
2023-01-06T14:10:44.903Z,100575.96
2023-01-06T14:13:24.952Z,100577.13
2023-01-06T14:16:13.063Z,100578.80
2023-01-06T14:18:53.566Z,100580.41
2023-01-06T14:21:30.641Z,100586.67
2023-01-06T14:24:10.687Z,100588.66
2023-01-06T14:27:08.346Z,100596.60
2023-01-06T14:29:47.427Z,100590.28
2023-01-06T14:32:24.624Z,100601.05
2023-01-06T14:35:06.603Z,100605.72
2023-01-06T14:37:52.062Z,100601.87
2023-01-06T14:40:30.964Z,100612.97
2023-01-06T14:43:08.433Z,100604.92
2023-01-06T14:45:41.286Z,100608.92
2023-01-06T14:48:15.995Z,100613.91
2023-01-06T14:50:51.081Z,100610.02
2023-01-06T14:53:30.810Z,100613.64
2023-01-06T14:56:03.460Z,100617.59
2023-01-06T14:58:37.326Z,100622.70
2023-01-06T15:01:22.374Z,100625.65
2023-01-06T15:04:10.887Z,100633.19
2023-01-06T15:06:43.686Z,100633.30
2023-01-06T15:09:21.069Z,100640.41
2023-01-06T15:11:53.584Z,100640.61
2023-01-06T15:14:34.527Z,100645.98
2023-01-06T15:17:07.517Z,100656.94
2023-01-06T15:19:42.159Z,100662.20
2023-01-06T15:22:20.838Z,100666.66
2023-01-06T15:24:53.277Z,100675.63
2023-01-06T15:27:26.755Z,100677.73
2023-01-06T15:30:00.181Z,100693.94
2023-01-06T15:32:33.095Z,100694.34
2023-01-06T15:35:07.377Z,100700.59
2023-01-06T15:37:39.198Z,100700.22
2023-01-06T15:40:15.887Z,100704.80
2023-01-06T15:42:48.727Z,100709.94
2023-01-06T15:45:35.947Z,100712.17
2023-01-06T15:48:15.349Z,100715.86
2023-01-06T15:50:48.012Z,100728.00
2023-01-06T15:53:25.599Z,100731.84
2023-01-06T15:55:58.259Z,100734.70
2023-01-06T15:58:39.074Z,100741.36
2023-01-06T16:01:15.946Z,100745.45
2023-01-06T16:03:54.011Z,100754.21
2023-01-06T16:06:31.498Z,100749.96
2023-01-06T16:09:27.089Z,100757.95
2023-01-06T16:12:21.129Z,100753.42
2023-01-06T16:14:53.909Z,100764.16
2023-01-06T16:17:32.494Z,100764.69
2023-01-06T16:20:08.165Z,100770.11
2023-01-06T16:22:51.942Z,100773.27
2023-01-06T16:25:28.526Z,100776.86
2023-01-06T16:28:04.133Z,100781.97
2023-01-06T16:30:38.282Z,100777.09
2023-01-06T16:33:39.691Z,100777.19
2023-01-06T16:36:14.806Z,100786.23
2023-01-06T16:38:47.296Z,100792.39
2023-01-06T16:41:21.161Z,100795.94
2023-01-06T16:43:53.842Z,100803.20
2023-01-06T16:46:27.997Z,100804.58
2023-01-06T16:49:01.989Z,100809.91
2023-01-06T16:51:34.412Z,100812.34
2023-01-06T16:54:11.805Z,100814.61
2023-01-06T16:56:45.062Z,100816.23
2023-01-06T16:59:19.285Z,100824.03
2023-01-06T17:01:51.043Z,100826.83
2023-01-06T17:04:23.556Z,100835.34
2023-01-06T17:06:57.345Z,100829.66
2023-01-06T17:09:30.208Z,100838.03
2023-01-06T17:12:02.927Z,100836.66
2023-01-06T17:14:35.380Z,100839.00
2023-01-06T17:17:13.486Z,100840.55
2023-01-06T17:19:46.824Z,100843.05
2023-01-06T17:22:31.070Z,100846.15
2023-01-06T17:25:05.548Z,100841.76
2023-01-06T17:27:38.594Z,100854.61
2023-01-06T17:30:15.873Z,100846.55
2023-01-06T17:32:48.868Z,100846.02
2023-01-06T17:35:31.806Z,100837.39
2023-01-06T17:38:10.906Z,100839.24
2023-01-06T17:40:43.465Z,100840.50
2023-01-06T17:43:29.087Z,100845.69
2023-01-06T17:46:03.632Z,100842.19
2023-01-06T17:48:36.091Z,100834.05
2023-01-06T17:51:10.011Z,100836.77
2023-01-06T17:54:00.040Z,100842.86
2023-01-06T17:56:34.232Z,100843.90
2023-01-06T17:59:18.795Z,100850.54
2023-01-06T18:01:53.126Z,100852.83
2023-01-06T18:04:26.890Z,100865.22
2023-01-06T18:06:59.493Z,100862.34
2023-01-06T18:09:32.149Z,100869.88
2023-01-06T18:12:08.592Z,100872.67
2023-01-06T18:14:43.226Z,100875.81
2023-01-06T18:17:28.541Z,100877.95
2023-01-06T18:20:01.450Z,100874.23
2023-01-06T18:22:34.626Z,100880.50
2023-01-06T18:25:08.632Z,100878.73
2023-01-06T18:27:41.222Z,100883.16
2023-01-06T18:30:37.439Z,100888.02
2023-01-06T18:33:16.642Z,100890.34
2023-01-06T18:35:50.558Z,100885.55
2023-01-06T18:38:22.953Z,100887.94
2023-01-06T18:40:56.215Z,100892.84
2023-01-06T18:43:30.628Z,100895.46
2023-01-06T18:46:03.656Z,100894.13
2023-01-06T18:48:38.462Z,100895.94
2023-01-06T18:51:17.771Z,100891.25
2023-01-06T18:53:51.337Z,100897.58
2023-01-06T18:56:27.393Z,100901.19
2023-01-06T18:59:00.203Z,100903.84
2023-01-06T19:01:49.368Z,100920.05
2023-01-06T19:04:31.693Z,100915.14
2023-01-06T19:07:21.979Z,100915.99
2023-01-06T19:09:54.587Z,100919.63
2023-01-06T19:12:32.825Z,100924.13
2023-01-06T19:15:22.136Z,100927.63
2023-01-06T19:17:55.657Z,100937.81
2023-01-06T19:20:30.711Z,100938.35
2023-01-06T19:23:06.440Z,100938.45
2023-01-06T19:25:41.290Z,100938.04
2023-01-06T19:28:30.664Z,100946.13
2023-01-06T19:31:07.935Z,100936.56
2023-01-06T19:34:00.039Z,100936.66
2023-01-06T19:36:46.519Z,100940.23
2023-01-06T19:39:35.950Z,100942.88
2023-01-06T19:42:27.829Z,100940.11
2023-01-06T19:45:02.434Z,100956.88
2023-01-06T19:47:36.984Z,100960.55
2023-01-06T19:50:23.313Z,100955.42
2023-01-06T19:53:00.477Z,100962.44
2023-01-06T19:55:33.426Z,100957.48
2023-01-06T19:58:18.688Z,100966.73
2023-01-06T20:00:52.873Z,100971.31
2023-01-06T20:03:30.538Z,100968.72
2023-01-06T20:06:03.468Z,100972.98
2023-01-06T20:08:35.988Z,100968.47
2023-01-06T20:11:09.468Z,100966.30
2023-01-06T20:13:42.486Z,100970.77
2023-01-06T20:16:17.018Z,100975.30
2023-01-06T20:18:50.963Z,100977.16
2023-01-06T20:21:24.077Z,100974.97
2023-01-06T20:23:58.538Z,100989.13
2023-01-06T20:26:30.997Z,100993.22
2023-01-06T20:29:06.992Z,100996.02
2023-01-06T20:31:40.252Z,100991.24
2023-01-06T20:34:12.915Z,100992.19
2023-01-06T20:36:45.915Z,100994.89
2023-01-06T20:39:18.856Z,101004.61
2023-01-06T20:41:51.498Z,101010.00
2023-01-06T20:44:24.330Z,101011.25
2023-01-06T20:46:56.855Z,101015.20
2023-01-06T20:49:29.213Z,101017.16
2023-01-06T20:52:02.001Z,101014.70
2023-01-06T20:54:35.248Z,101022.78
2023-01-06T20:57:08.451Z,101022.83
2023-01-06T20:59:41.356Z,101022.11
2023-01-06T21:02:14.658Z,101027.88
2023-01-06T21:04:47.794Z,101026.94
2023-01-06T21:07:20.822Z,101030.91
2023-01-06T21:09:54.267Z,101039.36
2023-01-06T21:12:27.309Z,101044.14
2023-01-06T21:15:01.352Z,101049.91
2023-01-06T21:17:34.623Z,101049.91
2023-01-06T21:20:28.981Z,101052.56
2023-01-06T21:23:02.236Z,101050.30
2023-01-06T21:25:35.309Z,101043.10
2023-01-06T21:28:07.711Z,101040.92
2023-01-06T21:30:40.359Z,101046.69
2023-01-06T21:33:13.606Z,101040.19
2023-01-06T21:35:46.381Z,101039.97
2023-01-06T21:38:19.736Z,101038.38
2023-01-06T21:40:53.146Z,101046.75
2023-01-06T21:43:25.808Z,101047.19
2023-01-06T21:45:58.435Z,101049.92
2023-01-06T21:48:31.288Z,101051.81
2023-01-06T21:51:03.641Z,101054.99
2023-01-06T21:53:36.285Z,101053.80
2023-01-06T21:56:09.366Z,101067.08
2023-01-06T21:58:42.637Z,101064.04
2023-01-06T22:01:15.277Z,101070.38
2023-01-06T22:03:49.028Z,101065.21
2023-01-06T22:06:21.848Z,101071.37
2023-01-06T22:08:54.899Z,101071.39
2023-01-06T22:14:12.355Z,101071.79
2023-01-06T22:16:45.018Z,101063.92
2023-01-06T22:19:18.428Z,101064.11
2023-01-06T22:21:51.304Z,101063.22
2023-01-06T22:24:24.851Z,101063.68
2023-01-06T22:26:57.491Z,101060.94
2023-01-06T22:29:30.229Z,101054.37
2023-01-06T22:32:04.698Z,101050.91
2023-01-06T22:37:20.615Z,101054.69
2023-01-06T22:39:53.567Z,101056.93
2023-01-06T22:42:26.141Z,101055.61
2023-01-06T22:44:58.937Z,101057.33
2023-01-06T22:47:33.649Z,101067.45
2023-01-06T22:50:07.183Z,101072.79
2023-01-06T22:52:40.083Z,101073.66
2023-01-06T22:55:13.000Z,101082.05
2023-01-06T22:57:45.838Z,101074.98
2023-01-06T23:00:19.498Z,101076.76
2023-01-06T23:02:52.138Z,101075.78
2023-01-06T23:05:24.845Z,101082.69
2023-01-06T23:07:57.851Z,101087.97
2023-01-06T23:10:30.645Z,101086.73
2023-01-06T23:13:03.375Z,101087.20
2023-01-06T23:15:36.132Z,101090.77
2023-01-06T23:18:08.630Z,101097.55
2023-01-06T23:20:42.025Z,101105.97
2023-01-06T23:23:14.425Z,101101.07
2023-01-06T23:25:47.153Z,101102.45
2023-01-06T23:28:19.595Z,101106.95
2023-01-06T23:30:51.993Z,101111.49
2023-01-06T23:33:24.631Z,101110.20
2023-01-06T23:35:58.863Z,101106.23
2023-01-06T23:38:32.214Z,101109.30
2023-01-06T23:41:10.705Z,101106.22
2023-01-06T23:43:43.894Z,101108.91
2023-01-06T23:46:19.141Z,101116.41
2023-01-06T23:48:51.843Z,101120.44
2023-01-06T23:51:25.384Z,101132.77
2023-01-06T23:53:57.962Z,101139.80
2023-01-06T23:56:32.496Z,101132.78
2023-01-06T23:59:05.391Z,101130.14
